x

Eel River - 17nm Wsw Of Eureka, Ca (46022) Wave Buoy

7:50am - Sat 29th Apr 2017 All times are PDT. -7 hours from GMT.

  • Sig Wave height 6.6ft
  • Swell Direction
  • Peak Period 8s
  • Average Period 6s
  • Wind
    16mph, 18mph gusts
  • Sea Temp 53°f
  • Air Temp 52°f
  • Sea Pressure 1023.9mb
  • Eel River - 17nm Wsw Of Eureka, Ca
  • Eel River - 17nm Wsw Of Eureka, Ca

More Historic Weather Station data

Upgrade to MSW Pro to gain access to the past 30 days of data for over 8000 Wavebouys and Weather Stations around the globe.

Join Pro

Comparision Forecast

View Surf forecast
   
Sat 04/29 7:50am 6.5ft 8s 6s 16 18 mph 1023.9mb 53f 52f
6:50am 7ft 8s 6s 16 18 mph 1023.2mb 53f 52f
5:50am 7ft 8s 6s 18 20 mph 1022.7mb 53f 53f
4:50am 8ft 8s 6s 16 20 mph 1022.7mb 53f 53f
3:50am 8ft 9s 7s 16 20 mph 1022.7mb 53f 53f
2:50am 8ft 8s 6s 18 20 mph 1022.9mb 53f 53f
1:50am 9ft 8s 7s 16 18 mph 1023mb 53f 53f
12:50am 9ft 8s 7s 16 20 mph 1023.1mb 53f 53f
Fri 04/28 11:50pm 10ft 8s 7s 16 20 mph 1023mb 53f 53f
10:50pm 9.5ft 8s 7s 16 18 mph 1023.4mb 53f 53f
9:50pm 9ft 8s 6s 18 20 mph 1023.2mb 53f 53f
8:50pm 10ft 8s 7s 20 25 mph 1022.9mb 53f 53f
7:50pm 9.5ft 8s 7s 20 22 mph 1022.7mb 53f 53f
5:50pm 8.5ft 8s 6s 22 27 mph 1022.6mb 53f 53f
4:50pm 9ft 8s 6s 22 27 mph 1022.6mb 53f 53f
3:50pm 8.5ft 7s 6s 22 27 mph 1022.7mb 53f 53f
2:50pm 9ft 7s 6s 22 29 mph 1023.1mb 53f 53f
1:50pm 7.5ft 7s 6s 27 34 mph 1022.9mb 53f 52f
12:50pm 7.5ft 7s 6s 25 29 mph 1023.4mb 53f 52f
11:50am 7ft 7s 6s 25 29 mph 1023.7mb 53f 52f
10:50am 7ft 7s 6s 22 25 mph 1024mb 53f 52f
9:50am 7.5ft 13s 6s 22 25 mph 1023.9mb 53f 52f
8:50am 7ft 12s 6s 22 27 mph 1023.9mb 53f 52f
7:50am 8ft 12s 6s 25 27 mph 1023.7mb 53f 52f
6:50am 7.5ft 6s 6s 22 29 mph 1023.1mb 53f 52f
5:50am 8.5ft 12s 6s 27 31 mph 1022.5mb 53f 52f
4:50am 9ft 11s  -  25 29 mph 1022.3mb 53f 52f
3:50am 8ft 11s 6s 25 29 mph 1022.4mb 53f 52f
2:50am 7.5ft 11s 6s 25 29 mph 1022.5mb 53f 52f
1:50am 8ft 12s 6s 22 25 mph 1022.9mb 53f 52f
12:50am 7.5ft 12s 6s 22 27 mph 1022.9mb 53f 52f
Thu 04/27 11:50pm 7ft 12s 6s 22 27 mph 1022.8mb 53f 52f
10:50pm 7ft 12s 6s 20 25 mph 1023.1mb 53f 52f
9:50pm 7ft 12s 6s 20 25 mph 1023mb 53f 52f
8:50pm 6.5ft 11s 6s 18 22 mph 1022.7mb 54f 52f
7:50pm 7ft 13s 6s 20 25 mph 1022.5mb 54f 52f
6:50pm 7ft 11s 7s 20 22 mph 1022.4mb 54f 53f
4:50pm 7ft 11s 7s 18 22 mph 1022.4mb 53f 53f
3:50pm 7.5ft 12s 7s 20 25 mph 1022.7mb 53f 52f
2:50pm 7ft 13s 7s 18 20 mph 1022.5mb 53f 53f
1:50pm 7ft 14s 7s 18 20 mph 1022.6mb 53f 53f
12:50pm 7ft 11s 7s 16 18 mph 1022.4mb 53f 52f
11:50am 7ft 11s 7s 18 20 mph 1023mb 53f 52f
10:50am 6ft 11s 6s 18 20 mph 1022.7mb 53f 52f
9:50am 7ft 11s 6s 16 18 mph 1022.7mb 53f 52f
8:50am 7ft 11s 6s 18 20 mph 1022.3mb 53f 52f
7:50am 7ft 12s 6s 18 22 mph 1022.2mb 53f 52f
6:50am 6ft 10s 6s 18 22 mph 1021.5mb 53f 52f
5:50am 7ft 12s 7s 18 22 mph 1021.1mb 53f 52f
4:50am 7ft 11s 7s 18 20 mph 1021.4mb 53f 52f
3:50am 7ft 11s 7s 16 18 mph 1021.5mb 53f 52f
2:50am 7ft 10s 7s 16 20 mph 1021.4mb 53f 52f
1:50am 7ft 12s 7s 18 20 mph 1021.5mb 53f 52f
12:50am 7ft 10s 7s 18 22 mph 1021.5mb 53f 52f
Wed 04/26 11:50pm 7ft 11s 6s 18 22 mph 1021.3mb 53f 52f
10:50pm 7ft 11s 6s 18 22 mph 1021.5mb 53f 52f
9:50pm 7ft 11s 6s 20 25 mph 1021.2mb 53f 52f
8:50pm 6.5ft 11s 6s 20 22 mph 1020.5mb 53f 53f
7:50pm 7ft 11s 6s 20 22 mph 1019.8mb 53f 53f
6:50pm 7ft 10s 6s 20 22 mph 1019.5mb 53f 53f
5:50pm 6ft 10s 6s 20 22 mph 1019mb 54f 53f
4:50pm 7ft 10s 7s 20 25 mph 1018.7mb 54f 52f
3:50pm 6ft 8s 7s 18 20 mph 1018mb 54f 53f
2:50pm 6ft 10s 7s 13 18 mph 1017.7mb 54f 54f
1:50pm 6.5ft 10s 7s 9 11 mph 1017.6mb 53f 53f
12:50pm 6ft 9s 7s 13 18 mph 1017.5mb 53f 53f
11:50am 6ft 10s 7s 11 13 mph 1016.9mb 53f 54f
10:50am 6ft 9s 7s 13 16 mph 1015.9mb 53f 53f
9:50am 6ft 9s 7s 13 16 mph 1015.8mb 53f 53f
8:50am 6ft 9s 7s 13
mph
1015.3mb 53f 53f
7:50am 6ft 8s 7s 11 13 mph 1015.3mb 53f 53f
6:50am 6ft 8s 7s 13 16 mph 1014.8mb 53f 53f
5:50am 6ft 9s 7s 11 13 mph 1014.9mb 53f 53f
4:50am 6ft 9s 6s 13 16 mph 1015.2mb 53f 53f
3:50am 6ft 9s 6s 16 20 mph 1015.8mb 53f 53f
2:50am 6ft 9s 6s 18 22 mph 1016.1mb 53f 54f
1:50am 6ft 9s 6s 18 22 mph 1015.8mb 53f 54f
12:50am 5.5ft 10s 6s 18 20 mph 1016.5mb 53f 54f
Tue 04/25 11:50pm 5.5ft 10s 6s 16 18 mph 1017.3mb 53f 54f
10:50pm 5ft 9s 6s 13 18 mph 1017.9mb 53f 54f
9:50pm 5ft 9s 6s 16 18 mph 1017.8mb 53f 54f
8:50pm 5ft 10s 6s 16 18 mph 1017.3mb 53f 53f
7:50pm 5ft 9s 6s 16 20 mph 1017.3mb 53f 54f
6:50pm 5.5ft 8s 6s 18 22 mph 1016.5mb 53f 54f
5:50pm 6ft 10s 6s 20 25 mph 1017.3mb 53f 54f
4:50pm 6ft 9s 6s 22 25 mph 1017.3mb 53f 54f